Time;durP1;ratioP1;P1;durP2;ratioP2;P2;SDS_P1;SDS_P2;PMS_P1;PMS_P2;Temp;Humidity;BMP_temperature;BMP_pressure;BME280_temperature;BME280_humidity;BME280_pressure;Samples;Min_cycle;Max_cycle;Signal;HPM_P1;HPM_P2
2021/12/05 00:23:40;;;;;;;0.43;0.43;;;4.90;93.70;3.70;99659.00;;;;31244486;28;20076;-76
2021/12/05 02:55:50;;;;;;;0.30;0.30;;;4.40;93.50;3.00;99676.00;;;;31264489;28;20627;-76
2021/12/05 03:10:55;;;;;;;0.30;0.30;;;4.30;93.80;2.90;99681.00;;;;31258290;28;20040;-76
2021/12/05 03:25:59;;;;;;;0.22;0.22;;;4.10;93.80;2.80;99676.00;;;;31263218;28;20051;-76
2021/12/05 03:41:01;;;;;;;0.68;0.68;;;4.10;94.00;2.80;99683.00;;;;31287648;28;20175;-76
2021/12/05 03:56:04;;;;;;;0.28;0.28;;;4.20;94.00;3.00;99676.00;;;;31301908;28;20052;-76
2021/12/05 04:11:14;;;;;;;0.20;0.20;;;4.40;94.50;3.10;99688.00;;;;31297365;28;20788;-76
2021/12/05 04:26:18;;;;;;;0.28;0.28;;;4.50;94.20;3.20;99678.00;;;;31278126;28;20129;-76
2021/12/05 04:41:23;;;;;;;0.30;0.30;;;4.50;94.00;3.30;99675.00;;;;31283193;28;20369;-76
2021/12/05 04:56:26;;;;;;;0.20;0.20;;;2.80;93.50;3.40;99692.00;;;;31206497;28;20037;-76
2021/12/05 05:11:28;;;;;;;0.20;0.20;;;4.60;93.90;3.50;99690.00;;;;31265903;28;20059;-76
2021/12/05 05:42:11;;;;;;;0.20;0.20;;;4.80;93.90;3.50;99700.00;;;;31285299;28;21236;-77
2021/12/05 05:57:41;;;;;;;0.20;0.20;;;4.80;93.90;3.60;99705.00;;;;31285630;28;20455;-76
2021/12/05 06:12:31;;;;;;;0.20;0.20;;;4.90;93.90;3.70;99726.00;;;;31283757;28;20041;-76
2021/12/05 06:27:32;;;;;;;0.30;0.30;;;4.90;93.90;3.80;99751.00;;;;31253140;28;20128;-75
2021/12/05 06:57:44;;;;;;;0.28;0.28;;;5.00;93.80;3.70;99783.00;;;;31180867;28;20102;-76
2021/12/05 07:13:21;;;;;;;0.30;0.30;;;5.00;93.90;3.70;99805.00;;;;31160996;28;20076;-76
2021/12/05 07:43:26;;;;;;;0.20;0.20;;;4.80;94.00;3.50;99819.00;;;;31300470;28;20046;-77
2021/12/05 07:59:26;;;;;;;0.28;0.28;;;4.80;94.00;3.60;99848.00;;;;31291467;28;20127;-74
2021/12/05 08:29:16;;;;;;;0.25;0.25;;;4.90;94.40;3.60;99869.00;;;;31299464;28;20072;-75
2021/12/05 10:16:49;;;;;;;;;;;5.20;94.50;4.00;100000.00;;;;31291705;28;20044;-75
2021/12/05 10:38:50;;;;;;;0.30;0.30;;;5.30;94.40;4.10;100025.00;;;;31172428;28;20431;-75
2021/12/05 10:53:57;;;;;;;0.20;0.20;;;5.40;94.40;4.20;100038.00;;;;31126894;28;20049;-75
2021/12/05 11:09:27;;;;;;;0.30;0.30;;;5.40;94.90;4.40;100053.00;;;;31121630;28;20095;-75
2021/12/05 11:24:52;;;;;;;0.20;0.20;;;5.70;94.20;4.60;100073.00;;;;31023136;28;20054;-75
2021/12/05 11:40:06;;;;;;;0.20;0.20;;;5.80;94.30;4.70;100077.00;;;;30963153;28;20054;-76
2021/12/05 11:55:25;;;;;;;0.15;0.15;;;5.90;94.30;4.80;100097.00;;;;30886926;28;20061;-74
2021/12/05 12:10:44;;;;;;;0.22;0.22;;;6.00;94.90;4.90;100102.00;;;;30889140;28;20046;-75
2021/12/05 12:25:49;;;;;;;0.40;0.40;;;6.10;94.40;4.80;100108.00;;;;30889714;28;20057;-75
2021/12/05 12:41:16;;;;;;;0.10;0.10;;;6.10;93.60;4.90;100127.00;;;;30884565;28;20053;-75
2021/12/05 12:56:21;;;;;;;;;;;6.20;93.50;5.10;100137.00;;;;30860079;28;20050;-75
2021/12/05 13:18:23;;;;;;;0.20;0.20;;;6.40;93.00;5.30;100155.00;;;;31520669;27;1474322;-75
2021/12/05 13:33:31;;;;;;;0.10;0.10;;;6.40;92.80;5.20;100161.00;;;;31159130;28;20483;-75
2021/12/05 13:48:33;;;;;;;0.10;0.10;;;6.40;92.80;5.20;100195.00;;;;31147409;28;20049;-75
2021/12/05 14:04:00;;;;;;;0.65;0.65;;;6.40;92.80;5.10;100222.00;;;;31134422;28;20632;-74
2021/12/05 14:19:05;;;;;;;0.20;0.20;;;6.30;93.00;5.10;100237.00;;;;31100258;28;20042;-76
2021/12/05 14:34:09;;;;;;;0.20;0.20;;;6.30;93.20;5.10;100276.00;;;;31071762;28;20080;-76
2021/12/05 14:49:10;;;;;;;0.30;0.30;;;6.30;93.80;4.90;100296.00;;;;31088886;28;20119;-75
2021/12/05 15:04:12;;;;;;;0.43;0.43;;;6.20;93.70;4.90;100322.00;;;;31071555;28;20061;-75
2021/12/05 15:19:14;;;;;;;0.20;0.20;;;6.10;93.50;4.80;100355.00;;;;31058826;28;20099;-76
2021/12/05 15:34:35;;;;;;;0.20;0.20;;;6.00;93.60;4.80;100369.00;;;;31036759;28;20052;-76
2021/12/05 15:49:56;;;;;;;0.30;0.30;;;6.00;93.70;4.80;100409.00;;;;31115897;28;20053;-76
2021/12/05 16:04:57;;;;;;;0.30;0.30;;;7.00;94.50;4.80;100429.00;;;;31039110;28;20050;-77
2021/12/05 16:20:15;;;;;;;0.30;0.30;;;6.00;93.70;4.80;100463.00;;;;31046986;28;20056;-78
2021/12/05 16:35:28;;;;;;;0.20;0.20;;;6.00;93.80;4.70;100477.00;;;;31039063;28;20087;-78
2021/12/05 16:50:31;;;;;;;0.30;0.30;;;5.90;93.80;4.60;100502.00;;;;31110345;28;20115;-78
2021/12/05 17:05:42;;;;;;;0.30;0.30;;;5.90;93.80;4.60;100518.00;;;;31105909;28;20169;-79
2021/12/05 17:21:11;;;;;;;0.20;0.20;;;5.80;93.80;4.50;100542.00;;;;31139153;28;20085;-79
2021/12/05 17:36:31;;;;;;;0.47;0.47;;;5.80;93.90;4.50;100560.00;;;;31154346;28;20053;-78
2021/12/05 17:51:37;;;;;;;0.20;0.20;;;5.70;94.00;4.40;100597.00;;;;31142044;28;20050;-78
2021/12/05 18:06:38;;;;;;;0.30;0.30;;;5.70;94.70;4.40;100631.00;;;;31085672;28;20053;-78
2021/12/05 18:21:41;;;;;;;0.30;0.30;;;5.70;94.30;4.40;100648.00;;;;31124389;28;20789;-79
2021/12/05 18:36:43;;;;;;;0.30;0.30;;;5.70;94.90;4.40;100663.00;;;;31056762;28;20115;-77
2021/12/05 18:51:45;;;;;;;0.20;0.20;;;5.60;94.30;4.30;100675.00;;;;31103596;28;20106;-77
2021/12/05 19:06:51;;;;;;;0.20;0.20;;;5.60;94.40;4.10;100701.00;;;;31058360;28;20056;-76
2021/12/05 19:21:52;;;;;;;1.07;1.07;;;5.50;94.80;4.20;100734.00;;;;31105914;28;20056;-77
2021/12/05 19:36:55;;;;;;;0.88;0.88;;;5.50;94.70;4.20;100746.00;;;;31176157;28;20045;-76
2021/12/05 19:52:00;;;;;;;0.30;0.30;;;5.40;94.80;4.20;100766.00;;;;31162283;28;20131;-77
2021/12/05 20:07:03;;;;;;;0.20;0.20;;;5.50;94.90;4.30;100775.00;;;;31134612;28;20053;-77
2021/12/05 20:22:05;;;;;;;0.30;0.30;;;5.70;95.30;4.20;100805.00;;;;31166069;28;20080;-77
2021/12/05 20:37:07;;;;;;;0.30;0.30;;;5.50;95.20;4.20;100818.00;;;;31139919;28;20037;-77
2021/12/05 20:52:08;;;;;;;0.60;0.60;;;5.50;95.10;4.20;100823.00;;;;31142297;28;20056;-77
2021/12/05 21:07:13;;;;;;;0.30;0.30;;;5.50;95.20;4.30;100844.00;;;;31139039;28;20085;-77
2021/12/05 21:22:15;;;;;;;0.30;0.30;;;5.50;95.10;4.10;100875.00;;;;31141879;28;20626;-77
2021/12/05 21:37:16;;;;;;;0.52;0.52;;;5.40;94.90;4.10;100904.00;;;;31143397;28;20095;-78
2021/12/05 21:52:19;;;;;;;0.20;0.20;;;5.30;95.40;4.00;100909.00;;;;31153460;28;20470;-77
2021/12/05 22:07:21;;;;;;;0.30;0.30;;;5.40;94.90;4.00;100933.00;;;;31077350;28;20520;-77
2021/12/05 22:22:22;;;;;;;0.30;0.30;;;5.30;94.90;4.00;100950.00;;;;31119578;28;20049;-76
2021/12/05 22:37:25;;;;;;;0.20;0.20;;;5.30;95.00;4.00;100974.00;;;;31076221;28;20056;-76
2021/12/05 22:52:25;;;;;;;0.30;0.30;;;5.20;94.80;3.90;100983.00;;;;31121728;28;20049;-76
2021/12/05 23:07:27;;;;;;;0.30;0.30;;;5.20;95.00;3.90;100985.00;;;;31103582;28;20398;-76
2021/12/05 23:22:29;;;;;;;0.95;0.95;;;5.20;96.30;3.80;100997.00;;;;31138852;28;20305;-76
2021/12/05 23:37:32;;;;;;;0.30;0.30;;;5.40;96.10;3.90;101002.00;;;;31036438;28;20042;-77
2021/12/05 23:52:38;;;;;;;0.30;0.30;;;5.10;94.90;3.80;101002.00;;;;31029627;28;20053;-77
